Lokaal Brand Risico
CBI


Neerslagradar Meer informatie rain snow radar


Onweersbuien Meer informatie Boltek Parkstad!


24/7 Weercamera Meer informatie Webcam







Het weer levert geen direct gevaar op in Parkstad (045)    Er zijn geen waarschuwingen afgegeven voor Parkstad (045)

METAR rapporten vliegvelden

   
EHBK - Beek Nederland
Gewijzigd: 21-09-2017 15:25
Gedeeltelijk bewolkt  
Gedeeltelijk bewolkt  
   Wind: Zuiden 7.4 km/h
Wind: Zuiden 7.4 km/h
Temperatuur: 18°C
Dauwpunt: 9°C
Vochtigheid: 56%
Barometer: 1019 hPa
Satelliet beelden: Gedeeltelijk bewolkt
Zicht: meer dan 10 km
Bewolking: Gedeeltelijk bewolkt
EHBK 211325Z AUTO 19004KT 110V250 9999 NSC 18/09 Q1019 NOSIG
EHBK - Maastricht Nederland
Gewijzigd: 21-09-2017 15:25
Gedeeltelijk bewolkt  
Gedeeltelijk bewolkt  
   Wind: Zuiden 7.4 km/h
Wind: Zuiden 7.4 km/h
Temperatuur: 18°C
Dauwpunt: 9°C
Vochtigheid: 56%
Barometer: 1019 hPa
Satelliet beelden: Gedeeltelijk bewolkt
Zicht: meer dan 10 km
Bewolking: Gedeeltelijk bewolkt
EHBK 211325Z AUTO 19004KT 110V250 9999 NSC 18/09 Q1019 NOSIG
EBLG - Liège België
Gewijzigd: 21-09-2017 15:20
Helder  
Helder  
   Wind: ZW 11.1 km/h
Wind: ZW 11.1 km/h
Temperatuur: 17°C
Dauwpunt: 7°C
Vochtigheid: 52%
Barometer: 1019 hPa
Zicht: meer dan 10 km
Bewolking: Helder
EBLG 211320Z 23006KT 190V290 CAVOK 17/07 Q1019 NOSIG
EDDK - Köln/Bonn Duitsland
Gewijzigd: 21-09-2017 15:50
Grotendeels bewolkt  
Grotendeels bewolkt  
   Wind: varieert 7.4 km/h
Wind: varieert 7.4 km/h
Temperatuur: 18°C
Dauwpunt: 8°C
Vochtigheid: 52%
Barometer: 1019 hPa
Satelliet beelden: Grotendeels bewolkt
Zicht: meer dan 10 km
Bewolking: Licht bewolkt 4000 ft,
Grotendeels bewolkt 26000 ft
EDDK 211350Z VRB04KT 9999 FEW040 BKN260 18/08 Q1019 NOSIG
EDDL - Düsseldorf Duitsland
Gewijzigd: 21-09-2017 15:50
Grotendeels bewolkt  
Grotendeels bewolkt  
   Wind: Zuiden 11.1 km/h
Wind: Zuiden 11.1 km/h
Temperatuur: 19°C
Dauwpunt: 7°C
Vochtigheid: 46%
Barometer: 1019 hPa
Satelliet beelden: Grotendeels bewolkt
Zicht: meer dan 10 km
Bewolking: Licht bewolkt 4800 ft,
Grotendeels bewolkt 30000 ft
EDDL 211350Z 17006KT 110V210 9999 FEW048 BKN300 19/07 Q1019 NOSIG
EHEH - Eindhoven Nederland
Gewijzigd: 21-09-2017 15:55
Grotendeels bewolkt  
Grotendeels bewolkt  
   Wind: Zuiden 11.1 km/h
Wind: Zuiden 11.1 km/h
Temperatuur: 19°C
Dauwpunt: 9°C
Vochtigheid: 52%
Barometer: 1019 hPa
Satelliet beelden: Grotendeels bewolkt
Zicht: meer dan 10 km
Bewolking: Licht bewolkt 13000 ft,
Grotendeels bewolkt 24000 ft
EHEH 211355Z AUTO 18006KT 140V240 9999 FEW130 BKN240 19/09 Q1019 BLU 18008KT CAVOK
ELLX - Luxemburg Luxemburg
Gewijzigd: 21-09-2017 15:20
Helder  
Helder  
   Wind: ZO 11.1 km/h
Wind: ZO 11.1 km/h
Temperatuur: 17°C
Dauwpunt: 8°C
Vochtigheid: 56%
Barometer: 1020 hPa
Satelliet beelden: Helder
Zicht: meer dan 10 km
Bewolking: Helder
ELLX 211320Z AUTO 14006KT 090V200 9999 NCD 17/08 Q1020 NOSIG
EGLL - London England
Gewijzigd: 21-09-2017 15:50
Bewolking  
Bewolking  
   Wind: Zuiden 20.4 km/h
Wind: Zuiden 20.4 km/h
Temperatuur: 17°C
Dauwpunt: 13°C
Vochtigheid: 77%
Barometer: 1014 hPa
Satelliet beelden: Bewolking
Zicht: meer dan 10 km
Bewolking: Grotendeels bewolkt 2200 ft,
Bewolking 2700 ft
EGLL 211350Z AUTO 19011KT 150V240 9999 BKN022 OVC027 17/13 Q1014
EBAW - Antwerpen België
Gewijzigd: 21-09-2017 15:50
Licht bewolkt  
Licht bewolkt  
   Wind: Zuiden 7.4 km/h
Wind: Zuiden 7.4 km/h
Temperatuur: 19°C
Dauwpunt: 9°C
Vochtigheid: 52%
Barometer: 1018 hPa
Satelliet beelden: Licht bewolkt
Zicht: meer dan 10 km
Bewolking: Licht bewolkt 4200 ft
EBAW 211350Z 18004KT 130V230 9999 FEW042 19/09 Q1018 NOSIG
EBOS - Oostende België
Gewijzigd: 21-09-2017 15:50
Helder  
Helder  
   Wind: Zuiden 18.5 km/h
Wind: Zuiden 18.5 km/h
Temperatuur: 19°C
Dauwpunt: 10°C
Vochtigheid: 56%
Barometer: 1017 hPa
Zicht: meer dan 10 km
Bewolking: Helder
EBOS 211350Z 19010KT 150V210 CAVOK 19/10 Q1017 NOSIG
LEAL - La Nucia Spanje
Gewijzigd: 21-09-2017 15:30
Licht bewolkt  
Licht bewolkt  
   Wind: Oosten 14.8 km/h
Wind: Oosten 14.8 km/h
Temperatuur: 26°C
Dauwpunt: 17°C
Vochtigheid: 58%
Barometer: 1016 hPa
Satelliet beelden: Licht bewolkt
Zicht: meer dan 10 km
Bewolking: Licht bewolkt 2000 ft
LEAL 211330Z 10008KT 070V150 9999 FEW020 26/17 Q1016 NOSIG
TNCA - Oranjestad Aruba
Gewijzigd: 21-09-2017 15:00
Licht bewolkt  
Licht bewolkt  
   Wind: ZZO 11.1 km/h
Wind: ZZO 11.1 km/h
Temperatuur: 30°C
Gevoelstemperatuur: 37°C
Dauwpunt: 26°C
Vochtigheid: 79%
Barometer: 1009 hPa
Satelliet beelden: Licht bewolkt
Zicht: meer dan 10 km
Bewolking: Licht bewolkt 1800 ft
TNCA 211300Z 15006KT 9999 FEW018 30/26 Q1009 A2982 NOSIG
TNCC - Willemstad Curacao
Gewijzigd: 21-09-2017 15:00
Licht bewolkt  
Licht bewolkt  
   Wind: ZZO 13 km/h
Wind: ZZO 13 km/h
Temperatuur: 31°C
Gevoelstemperatuur: 36°C
Dauwpunt: 23°C
Vochtigheid: 62%
Barometer: 1010 hPa
Satelliet beelden: Licht bewolkt
Zicht: meer dan 10 km
Bewolking: Licht bewolkt 2100 ft
TNCC 211300Z 15007KT 9999 FEW021 31/23 Q1010 NOSIG
MTPP - Port au Prince Haitië
Gewijzigd: 21-09-2017 15:00
Grotendeels bewolkt  
Grotendeels bewolkt  
   Wind: ZO 11.1 km/h
Wind: ZO 11.1 km/h
Temperatuur: 29°C
Gevoelstemperatuur: 33°C
Dauwpunt: 23°C
Vochtigheid: 70%
Barometer: 1007 hPa
Satelliet beelden: Grotendeels bewolkt
Zicht: meer dan 10 km
Bewolking: Licht bewolkt 2200 ft,
Grotendeels bewolkt 7000 ft
MTPP 211300Z 13006KT 9999 FEW022 BKN070 29/23 Q1007 A2976
ENVA - Trondheim Noorwegen
Gewijzigd: 21-09-2017 15:50
Helder  
Helder  
   Wind: ZZO 24.1 km/h
Wind: ZZO 24.1 km/h
Temperatuur: 13°C
Dauwpunt: 4°C
Vochtigheid: 55%
Barometer: 1019 hPa
Zicht: meer dan 10 km
Bewolking: Helder
ENVA 211350Z 15013KT CAVOK 13/04 Q1019 TEMPO 16018G28KT RMK WIND 670FT 16021G34KT
ENBO - Bodø Noorwegen
Gewijzigd: 21-09-2017 15:50
Grotendeels bewolkt  
Grotendeels bewolkt  
   Wind: Oosten 25.9 km/h
Wind: Oosten 25.9 km/h
Temperatuur: 12°C
Dauwpunt: 4°C
Vochtigheid: 58%
Barometer: 1024 hPa
Satelliet beelden: Grotendeels bewolkt
Zicht: meer dan 10 km
Bewolking: Licht bewolkt 4000 ft,
Grotendeels bewolkt 10000 ft
ENBO 211350Z 09014KT 9999 FEW040 BKN100 12/04 Q1024 NOSIG
ETNG - Geilenkirchen Duitsland
Gewijzigd: 21-09-2017 15:50
Grotendeels bewolkt  
Grotendeels bewolkt  
   Wind: OZO 3.7 km/h
Wind: OZO 3.7 km/h
Temperatuur: 19°C
Dauwpunt: 9°C
Vochtigheid: 52%
Barometer: 1019 hPa
Satelliet beelden: Grotendeels bewolkt
Zicht: meer dan 10 km
Bewolking: Licht bewolkt 4000 ft,
Grotendeels bewolkt 30000 ft
ETNG 211350Z 11002KT 9999 FEW040 BKN300 19/09 Q1019 NOSIG
 

Script ontwikkeld door  Saratoga-weather.org Aangepast voor de template door  Weerstation Leuven

U vindt ons ook hier:

Het Weer Aktueel

UK Metoffice

European Weather Network

WeatherCloud

Weather Underground

Benelux Weer Netwerk

AWEKAS

WeatherlinkIP

Citizen Weather Observer Program (CWOP)

HAMweather, WeatherForYou, PWS Weather

Apparatuur in gebruik:

Hardwareleverancier
Weerhuisje

Weerstation
Vantage Pro2 Plus +UV

Weercomputer
AwekasBox (ALIX.3D2 PC)

Weerprogramma
Smartbedded

Weersatelliet
WRX137 & KX137

Bliksemdetectie
Boltek StormTracker PCI

Webleverancier
STRATO VPS Linux V80

Weerhuisje

Vantage Pro2 Plus +UV

AwekasBox (ALIX.3D2 PC)

Smartbedded

WRX137 & KX137

Boltek StormTracker PCI

STRATO VPS Linux V80